MiSS Donna — WDG2382 — position and weather

sailwx.info

Track history (hours):
 
Tides and Currents Weather Stations Pressure Air Temp Water Temp Dewpoint Dewpoint Depression Visibility Wind Speed Wind Dir Waves Ship Positions

MiSS Donna

Owner: OCEAN MARINE BOAT RENTALS,LLC, MORGAN CITY, LA. More information available from US FCC via Universal Licensing System and Coast Guard Vessel Documentation Center.

Last reported at 2016-Aug-23 22:07 UTC. Time now 2016-Aug-24 01:36 UTC.
Position N 39°13' W 076°35'.

Length 21 m; draft 2.7 m.

Type: Towing. MMSI: 367515090.

Date/timePositionNaut miles runAvg speedWind from/ knotsBaromVisibWave heightAir tempDewpointWater temp
2016-Aug-23 22:07N 39°13' W 076°35'2 3.8
2016-Aug-23 21:27N 39°15' W 076°35'1 0.6
2016-Aug-23 20:33N 39°15' W 076°35'2 1.0
2016-Aug-23 18:14N 39°14' W 076°33'2 3.5
2016-Aug-23 17:32N 39°16' W 076°35'0 0.4
2016-Aug-23 16:33N 39°15' W 076°35'1 0.0
2016-Aug-22 12:30N 39°15' W 076°34'1 1.1
2016-Aug-22 11:22N 39°15' W 076°35'0 0.5
2016-Aug-22 10:29N 39°16' W 076°35'3 0.1
2016-Aug-20 13:22N 39°13' W 076°35'0 0.0
2016-Aug-20 12:33N 39°13' W 076°35'0 0.0
2016-Aug-20 11:33N 39°13' W 076°35'0 0.0
2016-Aug-20 10:32N 39°13' W 076°35'3 0.2
2016-Aug-19 18:29N 39°15' W 076°35'0 0.1
2016-Aug-19 17:09N 39°15' W 076°35'0 0.4
2016-Aug-19 16:33N 39°15' W 076°35'0 0.0
2016-Aug-19 15:33N 39°15' W 076°35'0 0.0
2016-Aug-19 14:27N 39°15' W 076°35'0 0.1
2016-Aug-19 13:31N 39°15' W 076°35'3 2.6
2016-Aug-19 12:28N 39°13' W 076°34'2 0.1
2016-Aug-18 18:20N 39°15' W 076°34'0 0.0
2016-Aug-17 18:30N 39°15' W 076°34'1 1.2
2016-Aug-17 17:33N 39°15' W 076°35'0 0.2
2016-Aug-17 16:30N 39°15' W 076°35'0 0.2
2016-Aug-17 15:30N 39°15' W 076°35'3 2.4
2016-Aug-17 14:25N 39°13' W 076°35'0 0.0
2016-Aug-16 18:26N 39°13' W 076°34'0 0.0
2016-Aug-16 17:20N 39°13' W 076°34'0 0.1
2016-Aug-16 16:14N 39°13' W 076°34'0 0.0
2016-Aug-16 15:28N 39°13' W 076°34'0 0.0
2016-Aug-16 14:21N 39°13' W 076°34'0 0.2
2016-Aug-16 13:05N 39°13' W 076°35'1 1.4
2016-Aug-16 12:33N 39°13' W 076°34'3 2.6
2016-Aug-16 11:34N 39°16' W 076°35'1 0.6
2016-Aug-16 10:10N 39°15' W 076°35'2 0.2
2016-Aug-15 22:33N 39°13' W 076°35'0 0.0
2016-Aug-15 21:33N 39°13' W 076°35'0 0.0
2016-Aug-15 20:33N 39°13' W 076°35'0 0.0
2016-Aug-15 19:33N 39°13' W 076°35'0 0.3
2016-Aug-15 18:30N 39°13' W 076°35'3 2.6
2016-Aug-15 17:33N 39°15' W 076°34'0 0.4
2016-Aug-15 16:33N 39°15' W 076°35'2 1.9
2016-Aug-15 15:33N 39°13' W 076°33'2 1.9
2016-Aug-15 14:34N 39°15' W 076°34'0 0.5
2016-Aug-15 13:33N 39°15' W 076°35'3 2.6
2016-Aug-15 12:33N 39°13' W 076°35'0 0.1
2016-Aug-15 11:33N 39°13' W 076°35'0 0.0
2016-Aug-15 10:33N 39°13' W 076°35'0 0.0
2016-Aug-15 09:31N 39°13' W 076°35'0 0.0
2016-Aug-15 08:33N 39°13' W 076°35'0 0.0
2016-Aug-15 07:29N 39°13' W 076°35'0 0.0
2016-Aug-15 06:33N 39°13' W 076°35'0 0.0
2016-Aug-15 04:33N 39°13' W 076°35'0 0.0
2016-Aug-15 03:32N 39°13' W 076°35'0 0.0
2016-Aug-15 02:33N 39°13' W 076°35'0 0.0
2016-Aug-15 00:17N 39°13' W 076°35'0 0.0
2016-Aug-14 23:32N 39°13' W 076°35'0 0.0
2016-Aug-14 22:33N 39°13' W 076°35'0 0.0
2016-Aug-14 21:33N 39°13' W 076°35'0 0.0
2016-Aug-14 20:32N 39°13' W 076°35'0 0.0
2016-Aug-14 18:26N 39°13' W 076°35'0 0.0
2016-Aug-14 17:31N 39°13' W 076°35'0 0.0
2016-Aug-14 16:33N 39°13' W 076°35'0 0.0
2016-Aug-14 13:31N 39°13' W 076°35'0 0.0
2016-Aug-14 12:07N 39°13' W 076°35'0 0.0
2016-Aug-14 11:32N 39°13' W 076°35'0 0.0
2016-Aug-14 06:29N 39°13' W 076°35'0 0.0
2016-Aug-14 04:33N 39°13' W 076°35'0 0.0
2016-Aug-14 03:32N 39°13' W 076°35'0 0.0
2016-Aug-14 02:33N 39°13' W 076°35'0 0.0
2016-Aug-14 01:32N 39°13' W 076°35'0 0.0
2016-Aug-14 00:29N 39°13' W 076°35'0 0.0
2016-Aug-13 23:32N 39°13' W 076°35'0 0.0
2016-Aug-13 22:31N 39°13' W 076°35'  
Track history (hours):
 
Tides and Currents Weather Stations Pressure Air Temp Water Temp Dewpoint Dewpoint Depression Visibility Wind Speed Wind Dir Waves Ship Positions

MiSS Donna

Owner: OCEAN MARINE BOAT RENTALS,LLC, MORGAN CITY, LA. More information available from US FCC via Universal Licensing System and Coast Guard Vessel Documentation Center.

Last reported at 2016-Aug-23 22:07 UTC. Time now 2016-Aug-24 01:36 UTC.
Position N 39°13' W 076°35'.

Length 21 m; draft 2.7 m.

Type: Towing. MMSI: 367515090.

Date/timePositionNaut miles runAvg speedWind from/ knotsBaromVisibWave heightAir tempDewpointWater temp
2016-Aug-23 22:07N 39°13' W 076°35'2 3.8
2016-Aug-23 21:27N 39°15' W 076°35'1 0.6
2016-Aug-23 20:33N 39°15' W 076°35'2 1.0
2016-Aug-23 18:14N 39°14' W 076°33'2 3.5
2016-Aug-23 17:32N 39°16' W 076°35'0 0.4
2016-Aug-23 16:33N 39°15' W 076°35'1 0.0
2016-Aug-22 12:30N 39°15' W 076°34'1 1.1
2016-Aug-22 11:22N 39°15' W 076°35'0 0.5
2016-Aug-22 10:29N 39°16' W 076°35'3 0.1
2016-Aug-20 13:22N 39°13' W 076°35'0 0.0
2016-Aug-20 12:33N 39°13' W 076°35'0 0.0
2016-Aug-20 11:33N 39°13' W 076°35'0 0.0
2016-Aug-20 10:32N 39°13' W 076°35'3 0.2
2016-Aug-19 18:29N 39°15' W 076°35'0 0.1
2016-Aug-19 17:09N 39°15' W 076°35'0 0.4
2016-Aug-19 16:33N 39°15' W 076°35'0 0.0
2016-Aug-19 15:33N 39°15' W 076°35'0 0.0
2016-Aug-19 14:27N 39°15' W 076°35'0 0.1
2016-Aug-19 13:31N 39°15' W 076°35'3 2.6
2016-Aug-19 12:28N 39°13' W 076°34'2 0.1
2016-Aug-18 18:20N 39°15' W 076°34'0 0.0
2016-Aug-17 18:30N 39°15' W 076°34'1 1.2
2016-Aug-17 17:33N 39°15' W 076°35'0 0.2
2016-Aug-17 16:30N 39°15' W 076°35'0 0.2
2016-Aug-17 15:30N 39°15' W 076°35'3 2.4
2016-Aug-17 14:25N 39°13' W 076°35'0 0.0
2016-Aug-16 18:26N 39°13' W 076°34'0 0.0
2016-Aug-16 17:20N 39°13' W 076°34'0 0.1
2016-Aug-16 16:14N 39°13' W 076°34'0 0.0
2016-Aug-16 15:28N 39°13' W 076°34'0 0.0
2016-Aug-16 14:21N 39°13' W 076°34'0 0.2
2016-Aug-16 13:05N 39°13' W 076°35'1 1.4
2016-Aug-16 12:33N 39°13' W 076°34'3 2.6
2016-Aug-16 11:34N 39°16' W 076°35'1 0.6
2016-Aug-16 10:10N 39°15' W 076°35'2 0.2
2016-Aug-15 22:33N 39°13' W 076°35'0 0.0
2016-Aug-15 21:33N 39°13' W 076°35'0 0.0
2016-Aug-15 20:33N 39°13' W 076°35'0 0.0
2016-Aug-15 19:33N 39°13' W 076°35'0 0.3
2016-Aug-15 18:30N 39°13' W 076°35'3 2.6
2016-Aug-15 17:33N 39°15' W 076°34'0 0.4
2016-Aug-15 16:33N 39°15' W 076°35'2 1.9
2016-Aug-15 15:33N 39°13' W 076°33'2 1.9
2016-Aug-15 14:34N 39°15' W 076°34'0 0.5
2016-Aug-15 13:33N 39°15' W 076°35'3 2.6
2016-Aug-15 12:33N 39°13' W 076°35'0 0.1
2016-Aug-15 11:33N 39°13' W 076°35'0 0.0
2016-Aug-15 10:33N 39°13' W 076°35'0 0.0
2016-Aug-15 09:31N 39°13' W 076°35'0 0.0
2016-Aug-15 08:33N 39°13' W 076°35'0 0.0
2016-Aug-15 07:29N 39°13' W 076°35'0 0.0
2016-Aug-15 06:33N 39°13' W 076°35'0 0.0
2016-Aug-15 04:33N 39°13' W 076°35'0 0.0
2016-Aug-15 03:32N 39°13' W 076°35'0 0.0
2016-Aug-15 02:33N 39°13' W 076°35'0 0.0
2016-Aug-15 00:17N 39°13' W 076°35'0 0.0
2016-Aug-14 23:32N 39°13' W 076°35'0 0.0
2016-Aug-14 22:33N 39°13' W 076°35'0 0.0
2016-Aug-14 21:33N 39°13' W 076°35'0 0.0
2016-Aug-14 20:32N 39°13' W 076°35'0 0.0
2016-Aug-14 18:26N 39°13' W 076°35'0 0.0
2016-Aug-14 17:31N 39°13' W 076°35'0 0.0
2016-Aug-14 16:33N 39°13' W 076°35'0 0.0
2016-Aug-14 13:31N 39°13' W 076°35'0 0.0
2016-Aug-14 12:07N 39°13' W 076°35'0 0.0
2016-Aug-14 11:32N 39°13' W 076°35'0 0.0
2016-Aug-14 06:29N 39°13' W 076°35'0 0.0
2016-Aug-14 04:33N 39°13' W 076°35'0 0.0
2016-Aug-14 03:32N 39°13' W 076°35'0 0.0
2016-Aug-14 02:33N 39°13' W 076°35'0 0.0
2016-Aug-14 01:32N 39°13' W 076°35'0 0.0
2016-Aug-14 00:29N 39°13' W 076°35'0 0.0
2016-Aug-13 23:32N 39°13' W 076°35'0 0.0
2016-Aug-13 22:31N 39°13' W 076°35'  

Dump ship's entire track history